Time;durP1;ratioP1;P1;durP2;ratioP2;P2;SDS_P1;SDS_P2;PMS_P1;PMS_P2;Temp;Humidity;BMP_temperature;BMP_pressure;BME280_temperature;BME280_humidity;BME280_pressure;Samples;Min_cycle;Max_cycle;Signal;HPM_P1;HPM_P2
2020/12/31 00:01:04;;;;;;;89.43;35.50;;;3.50;99.90;;;;;;5074721;28;20232;-74
2020/12/31 00:03:31;;;;;;;73.63;35.37;;;3.50;99.90;;;;;;5069354;28;20312;-75
2020/12/31 00:05:57;;;;;;;95.53;35.97;;;3.40;99.90;;;;;;5070633;28;20546;-74
2020/12/31 00:08:23;;;;;;;83.30;37.30;;;3.40;99.90;;;;;;5071906;28;20227;-74
2020/12/31 00:10:51;;;;;;;77.13;37.47;;;3.40;99.90;;;;;;5068880;28;20705;-74
2020/12/31 00:13:17;;;;;;;84.47;39.23;;;3.40;99.90;;;;;;5071782;28;20293;-73
2020/12/31 00:15:43;;;;;;;81.70;38.70;;;3.40;99.90;;;;;;5072016;28;20216;-73
2020/12/31 00:18:10;;;;;;;95.30;40.47;;;3.40;99.90;;;;;;5071271;28;20647;-74
2020/12/31 00:20:36;;;;;;;83.77;37.90;;;3.50;99.90;;;;;;5072378;28;20692;-74
2020/12/31 00:23:03;;;;;;;82.73;36.77;;;3.50;99.90;;;;;;5072144;28;20228;-74
2020/12/31 00:25:29;;;;;;;72.43;35.67;;;3.50;99.90;;;;;;5068161;28;20315;-73
2020/12/31 00:27:56;;;;;;;88.60;38.27;;;3.50;99.90;;;;;;5069909;28;20217;-74
2020/12/31 00:30:23;;;;;;;82.73;39.90;;;3.40;99.90;;;;;;5066686;28;20878;-74
2020/12/31 00:32:50;;;;;;;95.63;40.60;;;3.40;99.90;;;;;;5072242;28;20292;-72
2020/12/31 00:35:18;;;;;;;86.60;40.77;;;3.40;99.90;;;;;;5070150;28;20201;-74
2020/12/31 00:37:44;;;;;;;92.87;40.17;;;3.40;99.90;;;;;;5070423;28;20674;-73
2020/12/31 00:40:11;;;;;;;95.20;38.37;;;3.40;99.90;;;;;;5071455;28;20204;-73
2020/12/31 00:42:37;;;;;;;83.43;40.47;;;3.40;99.90;;;;;;5071435;28;20685;-73
2020/12/31 00:45:04;;;;;;;91.97;39.03;;;3.40;99.90;;;;;;5072157;28;20233;-73
2020/12/31 00:47:31;;;;;;;98.13;42.77;;;3.40;99.90;;;;;;5068038;28;20569;-74
2020/12/31 00:49:57;;;;;;;82.97;35.50;;;3.40;99.90;;;;;;5066637;28;20205;-73
2020/12/31 00:52:24;;;;;;;92.80;36.50;;;3.40;99.90;;;;;;5071716;28;20225;-74
2020/12/31 00:54:50;;;;;;;82.30;37.70;;;3.30;99.90;;;;;;5072299;28;20289;-73
2020/12/31 00:57:16;;;;;;;80.87;37.17;;;3.40;99.90;;;;;;5071468;28;20269;-73
2020/12/31 00:59:43;;;;;;;70.80;36.77;;;3.40;99.90;;;;;;5070135;28;20656;-73
2020/12/31 01:02:10;;;;;;;75.40;37.20;;;3.40;99.90;;;;;;5072142;28;20201;-73
2020/12/31 01:04:36;;;;;;;80.97;37.77;;;3.30;99.90;;;;;;5072550;28;20336;-73
2020/12/31 01:07:03;;;;;;;78.40;37.03;;;3.30;99.90;;;;;;5074326;28;20201;-74
2020/12/31 01:09:29;;;;;;;82.90;39.87;;;3.30;99.90;;;;;;5075065;28;20245;-74
2020/12/31 01:11:56;;;;;;;75.67;38.27;;;3.30;99.90;;;;;;5070713;28;20304;-74
2020/12/31 01:14:22;;;;;;;84.43;38.00;;;3.30;99.90;;;;;;5080096;28;20229;-74
2020/12/31 01:16:49;;;;;;;83.60;40.47;;;3.20;99.90;;;;;;5075020;28;20291;-73
2020/12/31 01:19:18;;;;;;;76.23;39.07;;;3.20;99.90;;;;;;5076271;28;20296;-74
2020/12/31 01:21:45;;;;;;;84.33;39.90;;;3.20;99.90;;;;;;5078893;28;20237;-73
2020/12/31 01:24:15;;;;;;;75.63;38.00;;;3.20;99.90;;;;;;5073558;28;20973;-73
2020/12/31 01:26:41;;;;;;;71.93;36.63;;;3.20;99.90;;;;;;5078751;28;20316;-74
2020/12/31 01:29:08;;;;;;;76.97;37.80;;;3.20;99.90;;;;;;5075048;28;20300;-74
2020/12/31 01:31:34;;;;;;;72.73;36.63;;;3.20;99.90;;;;;;5074108;28;20292;-74
2020/12/31 01:34:00;;;;;;;71.43;37.87;;;3.20;99.90;;;;;;5076100;28;20608;-73
2020/12/31 01:36:28;;;;;;;74.70;37.70;;;3.10;99.90;;;;;;5078941;28;20626;-74
2020/12/31 01:38:54;;;;;;;77.77;37.33;;;3.10;99.90;;;;;;5081293;28;20273;-74
2020/12/31 01:41:24;;;;;;;76.00;38.30;;;3.10;99.90;;;;;;5078702;28;20201;-74
2020/12/31 01:44:05;;;;;;;83.30;37.37;;;3.10;99.90;;;;;;5079554;28;20221;-74
2020/12/31 01:46:33;;;;;;;80.40;37.13;;;3.00;99.90;;;;;;5080359;28;20201;-74
2020/12/31 01:49:01;;;;;;;74.27;36.77;;;3.00;99.90;;;;;;5081368;28;20205;-74
2020/12/31 01:51:29;;;;;;;79.60;37.07;;;3.10;99.90;;;;;;5081826;28;20202;-73
2020/12/31 01:53:56;;;;;;;76.20;38.17;;;3.00;99.90;;;;;;5079611;28;20283;-74
2020/12/31 01:56:27;;;;;;;75.33;37.27;;;3.00;99.90;;;;;;5076417;28;20221;-74
2020/12/31 01:58:54;;;;;;;69.60;37.37;;;3.10;99.90;;;;;;5077557;28;20245;-74
2020/12/31 02:01:21;;;;;;;70.70;36.77;;;3.10;99.90;;;;;;5072002;28;20213;-73
2020/12/31 02:03:48;;;;;;;76.57;38.33;;;3.10;99.90;;;;;;5073487;28;20225;-73
2020/12/31 02:06:15;;;;;;;71.03;33.90;;;3.10;99.90;;;;;;5075170;28;20209;-74
2020/12/31 02:08:45;;;;;;;68.90;32.57;;;3.10;99.90;;;;;;5073665;28;20205;-73
2020/12/31 02:11:13;;;;;;;66.33;32.37;;;3.10;99.90;;;;;;5073597;28;20232;-73
2020/12/31 02:13:40;;;;;;;68.60;32.57;;;3.10;99.90;;;;;;5074691;28;20250;-74
2020/12/31 02:16:10;;;;;;;80.17;32.57;;;3.10;99.90;;;;;;5074063;28;20295;-73
2020/12/31 02:18:48;;;;;;;59.60;30.73;;;3.10;99.90;;;;;;5074179;28;20193;-73
2020/12/31 02:21:18;;;;;;;68.33;30.10;;;3.00;99.90;;;;;;5072791;28;20209;-74
2020/12/31 02:23:45;;;;;;;68.93;30.17;;;3.00;99.90;;;;;;5075955;28;20227;-73
2020/12/31 02:26:11;;;;;;;62.93;29.63;;;3.00;99.90;;;;;;5073681;28;20201;-73
2020/12/31 02:28:38;;;;;;;63.83;28.40;;;3.00;99.90;;;;;;5072651;28;20209;-74
2020/12/31 02:31:04;;;;;;;70.47;30.90;;;3.00;99.90;;;;;;5074511;28;20266;-74
2020/12/31 02:33:31;;;;;;;67.40;29.67;;;3.10;99.90;;;;;;5076482;28;20280;-74
2020/12/31 02:35:57;;;;;;;103.47;31.60;;;3.00;99.90;;;;;;5074958;28;20229;-74
2020/12/31 02:38:25;;;;;;;72.27;29.80;;;2.90;99.90;;;;;;5073755;28;20208;-74
2020/12/31 02:40:52;;;;;;;61.90;28.50;;;2.90;99.90;;;;;;5074457;28;20273;-74
2020/12/31 02:43:19;;;;;;;65.03;28.90;;;2.90;99.90;;;;;;5071235;28;20233;-75
2020/12/31 02:45:45;;;;;;;74.33;28.50;;;2.90;99.90;;;;;;5074332;28;20213;-73
2020/12/31 02:48:11;;;;;;;68.50;27.20;;;2.90;99.90;;;;;;5073056;28;20801;-72
2020/12/31 02:50:38;;;;;;;70.37;28.73;;;2.90;99.90;;;;;;5070267;28;20228;-73
2020/12/31 02:53:04;;;;;;;59.67;26.37;;;2.80;99.90;;;;;;5074558;28;20248;-73
2020/12/31 02:55:31;;;;;;;57.73;26.40;;;2.80;99.90;;;;;;5073908;28;20555;-73
2020/12/31 02:57:58;;;;;;;66.00;23.73;;;2.80;99.90;;;;;;5073053;28;20258;-74
2020/12/31 03:00:25;;;;;;;52.77;22.73;;;2.80;99.90;;;;;;5073522;28;20622;-74
2020/12/31 03:02:52;;;;;;;48.67;21.90;;;2.70;99.90;;;;;;5070953;28;20230;-73
2020/12/31 03:05:18;;;;;;;52.90;22.63;;;2.70;99.90;;;;;;5073037;28;20239;-72
2020/12/31 03:07:45;;;;;;;43.50;21.27;;;2.80;99.90;;;;;;5073005;28;20209;-75
2020/12/31 03:10:11;;;;;;;43.70;21.83;;;2.80;99.90;;;;;;5072858;28;20324;-74
2020/12/31 03:12:38;;;;;;;50.30;22.83;;;2.80;99.90;;;;;;5072927;28;20251;-75
2020/12/31 03:15:08;;;;;;;45.97;23.03;;;2.80;99.90;;;;;;5072881;28;20285;-75
2020/12/31 03:17:35;;;;;;;52.73;22.07;;;2.80;99.90;;;;;;5072887;28;20209;-74
2020/12/31 03:20:01;;;;;;;46.90;22.73;;;2.80;99.90;;;;;;5072597;28;20753;-74
2020/12/31 03:22:28;;;;;;;56.47;22.30;;;2.80;99.90;;;;;;5070833;28;20201;-74
2020/12/31 03:24:54;;;;;;;77.93;23.47;;;2.80;99.90;;;;;;5070521;28;20221;-72
2020/12/31 03:27:21;;;;;;;48.67;21.47;;;2.70;99.90;;;;;;5069186;28;20207;-75
2020/12/31 03:29:47;;;;;;;51.40;21.37;;;2.70;99.90;;;;;;5073411;28;20219;-75
2020/12/31 03:32:14;;;;;;;71.73;23.03;;;2.70;99.90;;;;;;5071875;28;20658;-74
2020/12/31 03:34:41;;;;;;;55.17;22.73;;;2.60;99.90;;;;;;5073175;28;20201;-74
2020/12/31 03:37:07;;;;;;;44.30;21.47;;;2.50;99.90;;;;;;5072892;28;20209;-74
2020/12/31 03:39:34;;;;;;;45.93;22.63;;;2.60;99.90;;;;;;5072707;28;20573;-74
2020/12/31 03:42:00;;;;;;;48.50;20.73;;;2.60;99.90;;;;;;5071299;28;20550;-73
2020/12/31 03:44:27;;;;;;;40.30;20.13;;;2.60;99.90;;;;;;5072807;28;20669;-73
2020/12/31 03:46:53;;;;;;;46.63;20.37;;;2.60;99.90;;;;;;5072909;28;20313;-74
2020/12/31 03:49:21;;;;;;;48.83;19.67;;;2.60;99.90;;;;;;5071849;28;20201;-73
2020/12/31 03:51:47;;;;;;;43.83;19.97;;;2.70;99.90;;;;;;5072742;28;20296;-74
2020/12/31 03:54:14;;;;;;;41.90;21.00;;;2.70;99.90;;;;;;5068267;28;20209;-74
2020/12/31 03:56:40;;;;;;;45.37;19.80;;;2.80;99.90;;;;;;5069704;28;20251;-74
2020/12/31 03:59:07;;;;;;;49.40;19.10;;;2.80;99.90;;;;;;5072089;28;20288;-73
2020/12/31 04:01:34;;;;;;;51.67;20.70;;;2.90;99.90;;;;;;5073572;28;20209;-73
2020/12/31 04:04:01;;;;;;;72.17;20.20;;;2.90;99.90;;;;;;5071424;28;20291;-75
2020/12/31 04:06:28;;;;;;;38.20;18.43;;;2.80;99.90;;;;;;5072231;28;20673;-73
2020/12/31 04:08:55;;;;;;;44.90;18.23;;;2.90;99.90;;;;;;5069459;28;20289;-74
2020/12/31 04:11:22;;;;;;;42.17;18.70;;;2.80;99.90;;;;;;5069454;28;20237;-73
2020/12/31 04:13:49;;;;;;;34.93;17.47;;;2.70;99.90;;;;;;5072244;28;20201;-73
2020/12/31 04:16:17;;;;;;;40.07;18.13;;;2.70;99.90;;;;;;5072590;28;20680;-73
2020/12/31 04:18:43;;;;;;;40.00;19.43;;;2.70;99.90;;;;;;5071636;28;20649;-73
2020/12/31 04:21:10;;;;;;;37.07;17.20;;;2.70;99.90;;;;;;5073383;28;20533;-74
2020/12/31 04:23:38;;;;;;;33.73;16.47;;;2.70;99.90;;;;;;5070929;28;20689;-74
2020/12/31 04:26:05;;;;;;;39.53;16.13;;;2.70;99.90;;;;;;5072120;28;20209;-74
2020/12/31 04:28:31;;;;;;;34.20;16.50;;;2.70;99.90;;;;;;5067792;28;20234;-74
2020/12/31 04:30:58;;;;;;;37.33;17.33;;;2.80;99.90;;;;;;5068852;28;20249;-73
2020/12/31 04:33:24;;;;;;;40.50;16.67;;;2.80;99.90;;;;;;5071173;28;20288;-73
2020/12/31 04:35:50;;;;;;;44.77;16.97;;;2.70;99.90;;;;;;5071639;28;20236;-74
2020/12/31 04:38:17;;;;;;;34.90;16.30;;;2.80;99.90;;;;;;5069919;28;20205;-74
2020/12/31 04:40:45;;;;;;;35.53;17.03;;;2.80;99.90;;;;;;5072957;28;20212;-73
2020/12/31 04:43:12;;;;;;;40.90;17.67;;;2.70;99.90;;;;;;5070366;28;20314;-73
2020/12/31 04:45:40;;;;;;;41.57;16.83;;;2.70;99.90;;;;;;5072381;28;20722;-75
2020/12/31 04:48:08;;;;;;;40.10;17.37;;;2.70;99.90;;;;;;5071755;28;20296;-75
2020/12/31 04:50:38;;;;;;;34.83;17.30;;;2.80;99.90;;;;;;5072112;28;20209;-74
2020/12/31 04:53:06;;;;;;;44.43;17.27;;;2.80;99.90;;;;;;5070090;28;20308;-74
2020/12/31 04:55:33;;;;;;;56.43;18.30;;;2.80;99.90;;;;;;5071236;28;20213;-74
2020/12/31 04:58:00;;;;;;;38.83;17.57;;;2.80;99.90;;;;;;5069816;28;20619;-73
2020/12/31 05:00:27;;;;;;;38.60;17.23;;;2.80;99.90;;;;;;5071880;28;20288;-74
2020/12/31 05:02:54;;;;;;;37.43;16.30;;;2.80;99.90;;;;;;5071308;28;20322;-75
2020/12/31 05:05:20;;;;;;;40.13;16.13;;;2.70;99.90;;;;;;5071401;28;20221;-74
2020/12/31 05:07:49;;;;;;;37.53;16.43;;;2.80;99.90;;;;;;5070248;28;20206;-75
2020/12/31 05:10:16;;;;;;;37.57;15.37;;;2.80;99.90;;;;;;5071200;28;20237;-74
2020/12/31 05:12:42;;;;;;;37.53;16.97;;;2.70;99.90;;;;;;5072073;28;20225;-74
2020/12/31 05:15:10;;;;;;;34.80;16.43;;;2.70;99.90;;;;;;5075753;28;20211;-74
2020/12/31 05:17:36;;;;;;;37.40;15.97;;;2.70;99.90;;;;;;5075215;28;20734;-74
2020/12/31 05:20:14;;;;;;;36.17;17.20;;;2.60;99.90;;;;;;5075343;28;20288;-73
2020/12/31 05:22:41;;;;;;;41.03;14.77;;;2.60;99.90;;;;;;5075106;28;20242;-74
2020/12/31 05:25:07;;;;;;;31.83;13.83;;;2.60;99.90;;;;;;5071606;28;20274;-74
2020/12/31 05:27:33;;;;;;;33.73;13.37;;;2.60;99.90;;;;;;5074778;28;20620;-75
2020/12/31 05:30:01;;;;;;;36.10;12.87;;;2.50;99.90;;;;;;5075320;28;20223;-74
2020/12/31 05:32:31;;;;;;;28.17;13.63;;;2.40;99.90;;;;;;5075312;28;20205;-74
2020/12/31 05:34:58;;;;;;;27.17;12.57;;;2.40;99.90;;;;;;5075695;28;20224;-74
2020/12/31 05:37:28;;;;;;;27.40;13.93;;;2.30;99.90;;;;;;5075335;28;20300;-73
2020/12/31 05:39:59;;;;;;;27.07;14.17;;;2.30;99.90;;;;;;5075615;28;20671;-73
2020/12/31 05:42:26;;;;;;;29.60;15.57;;;2.30;99.90;;;;;;5074438;28;20651;-73
2020/12/31 05:45:08;;;;;;;31.27;14.20;;;2.30;99.90;;;;;;5071754;28;20285;-73
2020/12/31 05:47:43;;;;;;;31.57;15.83;;;2.40;99.90;;;;;;5074204;28;20205;-72
2020/12/31 05:50:26;;;;;;;33.80;15.43;;;2.40;99.90;;;;;;5073650;28;20201;-73
2020/12/31 05:52:53;;;;;;;32.43;14.13;;;2.50;99.90;;;;;;5074717;28;20730;-74
2020/12/31 05:55:21;;;;;;;39.23;15.40;;;2.50;99.90;;;;;;5075368;28;20216;-74
2020/12/31 05:57:49;;;;;;;36.17;15.97;;;2.50;99.90;;;;;;5075007;28;20202;-73
2020/12/31 06:00:18;;;;;;;32.57;15.63;;;2.50;99.90;;;;;;5077355;28;21003;-74
2020/12/31 06:02:48;;;;;;;34.40;14.43;;;2.40;99.90;;;;;;5071815;28;20314;-74
2020/12/31 06:05:15;;;;;;;29.80;14.03;;;2.40;99.90;;;;;;5074261;28;20233;-74
2020/12/31 06:07:43;;;;;;;29.27;14.77;;;2.40;99.90;;;;;;5071376;28;20611;-73
2020/12/31 06:10:12;;;;;;;27.87;14.03;;;2.40;99.90;;;;;;5074618;28;20235;-73
2020/12/31 06:12:49;;;;;;;33.30;15.23;;;2.40;99.90;;;;;;5074130;28;20221;-73
2020/12/31 06:15:22;;;;;;;35.03;14.90;;;2.40;99.90;;;;;;5072723;28;20205;-74
2020/12/31 06:17:50;;;;;;;31.03;14.57;;;2.40;99.90;;;;;;5076588;28;20689;-73
2020/12/31 06:20:17;;;;;;;27.00;14.37;;;2.40;99.90;;;;;;5073747;28;20220;-73
2020/12/31 06:23:02;;;;;;;34.47;14.00;;;2.40;99.90;;;;;;5071922;28;20222;-75
2020/12/31 06:25:40;;;;;;;28.17;14.17;;;2.40;99.90;;;;;;5071176;28;20792;-73
2020/12/31 06:28:10;;;;;;;35.60;13.67;;;2.40;99.90;;;;;;5070948;28;20201;-73
2020/12/31 06:30:38;;;;;;;32.43;15.03;;;2.40;99.90;;;;;;5072303;28;20201;-73
2020/12/31 06:33:20;;;;;;;33.20;15.03;;;2.40;99.90;;;;;;5068569;28;20211;-72
2020/12/31 06:35:50;;;;;;;32.97;14.93;;;2.40;99.90;;;;;;5071977;28;20651;-73
2020/12/31 06:38:27;;;;;;;29.73;14.93;;;2.40;99.90;;;;;;5073156;28;20254;-73
2020/12/31 06:40:54;;;;;;;28.70;14.10;;;2.40;99.90;;;;;;5072281;28;20213;-72
2020/12/31 06:43:30;;;;;;;29.83;14.43;;;2.50;99.90;;;;;;5073703;28;20304;-73
2020/12/31 06:45:57;;;;;;;27.27;15.33;;;2.50;99.90;;;;;;5071634;28;20209;-73
2020/12/31 06:48:39;;;;;;;31.53;14.23;;;2.40;99.90;;;;;;5074189;28;20286;-73
2020/12/31 06:51:07;;;;;;;25.47;14.23;;;2.50;99.90;;;;;;5070957;28;20220;-73
2020/12/31 06:53:36;;;;;;;28.47;12.70;;;2.50;99.90;;;;;;5069595;28;20324;-73
2020/12/31 06:56:04;;;;;;;24.73;13.80;;;2.40;99.90;;;;;;5072745;28;20247;-74
2020/12/31 06:58:31;;;;;;;30.73;13.07;;;2.40;99.90;;;;;;5069776;28;20204;-73
2020/12/31 07:00:58;;;;;;;23.80;13.30;;;2.40;99.90;;;;;;5072878;28;20662;-74
2020/12/31 07:03:47;;;;;;;23.03;13.10;;;2.30;99.90;;;;;;5072711;28;20247;-72
2020/12/31 07:06:41;;;;;;;28.27;12.63;;;2.30;99.90;;;;;;5072858;28;20307;-73
2020/12/31 07:09:32;;;;;;;27.20;12.43;;;2.20;99.90;;;;;;5071107;28;20197;-72
2020/12/31 07:12:04;;;;;;;26.17;11.63;;;2.20;99.90;;;;;;5073279;28;20311;-72
2020/12/31 07:14:32;;;;;;;24.00;12.77;;;2.10;99.90;;;;;;5073594;28;20614;-72
2020/12/31 07:17:06;;;;;;;25.57;13.60;;;2.10;99.90;;;;;;5073520;28;20627;-74
2020/12/31 07:19:35;;;;;;;27.70;13.53;;;2.10;99.90;;;;;;5070461;28;20404;-75
2020/12/31 07:22:02;;;;;;;28.50;13.57;;;2.10;99.90;;;;;;5073760;28;20201;-75
2020/12/31 07:24:32;;;;;;;25.10;13.93;;;2.10;99.90;;;;;;5070992;28;20249;-75
2020/12/31 07:27:02;;;;;;;27.07;13.27;;;2.20;99.90;;;;;;5072682;28;20197;-74
2020/12/31 07:29:33;;;;;;;24.10;12.73;;;2.20;99.90;;;;;;5071968;28;20198;-76
2020/12/31 07:32:01;;;;;;;27.00;13.77;;;2.20;99.90;;;;;;5069681;28;20203;-75
2020/12/31 07:34:28;;;;;;;26.07;13.50;;;2.20;99.90;;;;;;5078442;28;20209;-73
2020/12/31 07:37:01;;;;;;;37.53;13.93;;;2.30;99.90;;;;;;5071734;28;20233;-71
2020/12/31 07:39:28;;;;;;;28.27;12.13;;;2.30;99.90;;;;;;5073620;28;20300;-73
2020/12/31 07:42:15;;;;;;;26.77;12.57;;;2.20;99.90;;;;;;5075386;28;20209;-72
2020/12/31 07:44:49;;;;;;;29.17;13.00;;;2.20;99.90;;;;;;5074254;28;20285;-72
2020/12/31 07:47:17;;;;;;;32.23;13.53;;;2.20;99.90;;;;;;5074247;28;20753;-73
2020/12/31 07:49:45;;;;;;;26.70;11.83;;;2.20;99.90;;;;;;5070349;28;20578;-72
2020/12/31 07:52:12;;;;;;;24.93;11.80;;;2.20;99.90;;;;;;5074932;28;20220;-73
2020/12/31 07:54:39;;;;;;;20.13;11.27;;;2.20;99.90;;;;;;5073074;28;20308;-72
2020/12/31 07:57:08;;;;;;;25.60;12.27;;;2.20;99.90;;;;;;5073362;28;20217;-71
2020/12/31 07:59:40;;;;;;;26.50;12.80;;;2.20;99.90;;;;;;5073031;28;20212;-71
2020/12/31 08:02:07;;;;;;;23.43;12.77;;;2.20;99.90;;;;;;5067660;28;20204;-71
2020/12/31 08:04:34;;;;;;;23.90;12.57;;;2.20;99.90;;;;;;5072790;28;20337;-71
2020/12/31 08:07:03;;;;;;;26.20;12.67;;;2.20;99.90;;;;;;5072196;28;20220;-72
2020/12/31 08:09:30;;;;;;;22.53;12.37;;;2.20;99.90;;;;;;5065768;28;20221;-74
2020/12/31 08:11:57;;;;;;;26.43;13.37;;;2.20;99.90;;;;;;5072880;28;20217;-75
2020/12/31 08:14:24;;;;;;;28.93;13.37;;;2.20;99.90;;;;;;5078384;28;20541;-74
2020/12/31 08:17:02;;;;;;;24.73;12.33;;;2.20;99.90;;;;;;5074783;28;20210;-75
2020/12/31 08:19:30;;;;;;;40.90;13.47;;;2.40;99.90;;;;;;5073560;28;20288;-75
2020/12/31 08:22:01;;;;;;;26.03;12.37;;;2.30;99.90;;;;;;5072732;28;20217;-75
2020/12/31 08:24:32;;;;;;;24.70;12.63;;;2.30;99.90;;;;;;5074197;28;20704;-77
2020/12/31 08:26:59;;;;;;;23.33;11.87;;;2.30;99.90;;;;;;5073975;28;20288;-76
2020/12/31 08:29:27;;;;;;;25.73;12.37;;;2.30;99.90;;;;;;5071509;28;20292;-72
2020/12/31 08:31:54;;;;;;;23.30;12.03;;;2.30;99.90;;;;;;5071613;28;20300;-74
2020/12/31 08:34:26;;;;;;;21.43;10.97;;;2.30;99.90;;;;;;5072406;28;20201;-76
2020/12/31 08:36:55;;;;;;;22.10;12.00;;;2.30;99.90;;;;;;5069024;28;20217;-75
2020/12/31 08:39:21;;;;;;;20.83;10.97;;;2.20;99.90;;;;;;5072103;28;20712;-73
2020/12/31 08:42:00;;;;;;;25.70;11.30;;;2.20;99.90;;;;;;5078973;28;20237;-75
2020/12/31 08:44:27;;;;;;;22.77;11.47;;;2.20;99.90;;;;;;5073065;28;20315;-77
2020/12/31 08:46:54;;;;;;;33.40;11.00;;;2.30;99.90;;;;;;5076604;28;20209;-77
2020/12/31 08:49:24;;;;;;;22.57;10.97;;;2.30;99.90;;;;;;5073287;28;20228;-75
2020/12/31 08:51:51;;;;;;;19.73;10.57;;;2.30;99.90;;;;;;5068428;28;20213;-75
2020/12/31 08:54:18;;;;;;;21.23;11.00;;;2.20;99.90;;;;;;5073011;28;20628;-75
2020/12/31 08:56:45;;;;;;;23.33;11.57;;;2.20;99.90;;;;;;5072566;28;20217;-73
2020/12/31 08:59:13;;;;;;;20.77;11.00;;;2.20;99.90;;;;;;5072502;28;20702;-73
2020/12/31 09:01:41;;;;;;;20.20;10.47;;;2.20;99.90;;;;;;5068777;28;20293;-75
2020/12/31 09:04:10;;;;;;;27.63;12.33;;;2.30;99.90;;;;;;5066944;28;20237;-74
2020/12/31 09:06:37;;;;;;;19.17;10.70;;;2.30;99.90;;;;;;5072315;28;20201;-74
2020/12/31 09:09:03;;;;;;;19.80;10.77;;;2.20;99.90;;;;;;5073552;28;20252;-74
2020/12/31 09:11:30;;;;;;;19.67;10.57;;;2.30;99.90;;;;;;5074653;28;20237;-73
2020/12/31 09:14:07;;;;;;;17.77;9.90;;;2.30;99.90;;;;;;5072090;28;20219;-73
2020/12/31 09:16:35;;;;;;;20.00;11.00;;;2.30;99.90;;;;;;5072082;28;20217;-72
2020/12/31 09:19:02;;;;;;;20.17;9.83;;;2.30;99.90;;;;;;5071712;28;20197;-74
2020/12/31 09:21:29;;;;;;;21.37;11.37;;;2.30;99.90;;;;;;5072796;28;20217;-76
2020/12/31 09:23:56;;;;;;;20.90;10.73;;;2.30;99.90;;;;;;5072637;28;20747;-73
2020/12/31 09:26:26;;;;;;;19.67;9.63;;;2.30;99.90;;;;;;5074810;28;20628;-73
2020/12/31 09:28:53;;;;;;;21.67;10.77;;;2.30;99.90;;;;;;5071708;28;20258;-73
2020/12/31 09:31:22;;;;;;;22.30;11.37;;;2.30;99.90;;;;;;5071489;28;20217;-73
2020/12/31 09:33:51;;;;;;;21.53;10.77;;;2.40;99.90;;;;;;5074028;28;20236;-73
2020/12/31 09:36:22;;;;;;;23.07;11.43;;;2.40;99.90;;;;;;5073000;28;20309;-74
2020/12/31 09:38:49;;;;;;;22.40;11.03;;;2.40;99.90;;;;;;5072898;28;20211;-74
2020/12/31 09:41:15;;;;;;;26.40;12.13;;;2.50;99.90;;;;;;5072654;28;20249;-75
2020/12/31 09:43:41;;;;;;;18.70;10.50;;;2.50;99.90;;;;;;5071981;28;20284;-74
2020/12/31 09:46:08;;;;;;;21.37;10.20;;;2.50;99.90;;;;;;5072310;28;20577;-72
2020/12/31 09:48:35;;;;;;;27.57;12.00;;;2.50;99.90;;;;;;5065472;28;20266;-74
2020/12/31 09:51:03;;;;;;;27.33;11.50;;;2.50;99.90;;;;;;5071389;28;20202;-74
2020/12/31 09:53:29;;;;;;;21.23;11.20;;;2.50;99.90;;;;;;5068564;28;20326;-73
2020/12/31 09:55:57;;;;;;;22.27;11.43;;;2.50;99.90;;;;;;5073291;28;20205;-73
2020/12/31 09:58:23;;;;;;;24.80;12.00;;;2.40;99.90;;;;;;5068731;28;20237;-71
2020/12/31 10:00:49;;;;;;;24.60;12.73;;;2.50;99.90;;;;;;5073733;28;20300;-72
2020/12/31 10:03:16;;;;;;;26.03;12.27;;;2.50;99.90;;;;;;5072640;28;20214;-73
2020/12/31 10:05:42;;;;;;;23.07;10.87;;;2.60;99.90;;;;;;5077325;28;20266;-72
2020/12/31 10:08:09;;;;;;;24.10;11.80;;;2.60;99.90;;;;;;5073005;28;20215;-72
2020/12/31 10:10:36;;;;;;;23.53;11.90;;;2.70;99.90;;;;;;5074046;28;20277;-73
2020/12/31 10:13:02;;;;;;;21.07;10.83;;;2.70;99.90;;;;;;5073852;28;20229;-71
2020/12/31 10:15:29;;;;;;;26.33;12.47;;;2.70;99.90;;;;;;5073640;28;20285;-72
2020/12/31 10:17:55;;;;;;;23.67;12.17;;;2.70;99.90;;;;;;5070768;28;20205;-73
2020/12/31 10:20:21;;;;;;;24.67;12.30;;;2.80;99.90;;;;;;5078072;28;20562;-74
2020/12/31 10:22:48;;;;;;;25.73;13.37;;;2.80;99.90;;;;;;5072119;28;20225;-71
2020/12/31 10:25:15;;;;;;;21.60;11.73;;;2.90;99.90;;;;;;5072984;28;20247;-74
2020/12/31 10:27:42;;;;;;;24.93;12.40;;;2.90;99.90;;;;;;5073792;28;20659;-72
2020/12/31 10:30:08;;;;;;;23.67;11.43;;;3.00;99.90;;;;;;5070154;28;20294;-72
2020/12/31 10:32:35;;;;;;;21.60;12.47;;;3.00;99.90;;;;;;5073546;28;20650;-72
2020/12/31 10:35:01;;;;;;;23.53;10.63;;;3.00;99.90;;;;;;5073862;28;20240;-72
2020/12/31 10:37:28;;;;;;;19.90;10.07;;;2.90;99.90;;;;;;5072625;28;20292;-72
2020/12/31 10:39:54;;;;;;;21.17;10.67;;;2.90;99.90;;;;;;5072262;28;20664;-72
2020/12/31 10:42:22;;;;;;;21.97;11.33;;;2.90;99.90;;;;;;5072403;28;20213;-72
2020/12/31 10:44:48;;;;;;;21.60;11.47;;;2.90;99.90;;;;;;5072260;28;20225;-73
2020/12/31 10:47:14;;;;;;;27.03;11.90;;;2.90;99.90;;;;;;5069868;28;20209;-72
2020/12/31 10:49:41;;;;;;;23.93;12.57;;;3.00;99.90;;;;;;5071978;28;20206;-72
2020/12/31 10:52:07;;;;;;;27.80;12.63;;;3.00;99.90;;;;;;5076226;28;20212;-73
2020/12/31 10:54:34;;;;;;;27.20;12.73;;;3.00;99.90;;;;;;5070756;28;20324;-71
2020/12/31 10:57:00;;;;;;;26.27;12.90;;;3.10;99.90;;;;;;5073734;28;20210;-73
2020/12/31 10:59:27;;;;;;;27.13;13.20;;;3.10;99.90;;;;;;5074961;28;20202;-73
2020/12/31 11:01:54;;;;;;;34.73;13.43;;;3.10;99.90;;;;;;5074050;28;20209;-74
2020/12/31 11:04:21;;;;;;;31.03;14.03;;;3.10;99.90;;;;;;5074927;28;20257;-73
2020/12/31 11:06:49;;;;;;;27.53;13.50;;;3.10;99.90;;;;;;5076860;28;20245;-74
2020/12/31 11:09:16;;;;;;;27.43;12.97;;;3.20;99.90;;;;;;5079780;28;20301;-72
2020/12/31 11:11:43;;;;;;;31.17;13.90;;;3.20;99.90;;;;;;5073854;28;20581;-73
2020/12/31 11:14:10;;;;;;;30.47;13.43;;;3.30;99.90;;;;;;5076445;28;20201;-73
2020/12/31 11:16:37;;;;;;;29.33;14.17;;;3.30;99.90;;;;;;5074742;28;20224;-73
2020/12/31 11:19:05;;;;;;;28.77;13.10;;;3.20;99.90;;;;;;5074118;28;20205;-74
2020/12/31 11:21:31;;;;;;;31.67;14.97;;;3.10;99.90;;;;;;5074492;28;20563;-74
2020/12/31 11:23:58;;;;;;;28.77;13.83;;;3.10;99.90;;;;;;5076414;28;20650;-74
2020/12/31 11:26:26;;;;;;;31.10;14.10;;;3.10;99.90;;;;;;5077314;28;20241;-73
2020/12/31 11:28:52;;;;;;;32.70;14.07;;;3.00;99.90;;;;;;5064957;28;20205;-73
2020/12/31 11:31:25;;;;;;;30.70;14.20;;;3.00;99.90;;;;;;5074345;28;20228;-72
2020/12/31 11:33:52;;;;;;;34.93;15.30;;;3.00;99.90;;;;;;5072428;28;20233;-74
2020/12/31 11:36:20;;;;;;;26.63;14.17;;;2.90;99.90;;;;;;5075587;28;20220;-73
2020/12/31 11:38:48;;;;;;;34.63;14.97;;;2.90;99.90;;;;;;5074411;28;20205;-74
2020/12/31 11:41:14;;;;;;;36.90;16.20;;;3.00;99.90;;;;;;5072635;28;20301;-72
2020/12/31 11:43:41;;;;;;;36.33;16.63;;;2.90;99.90;;;;;;5072768;28;20264;-73
2020/12/31 11:46:08;;;;;;;33.23;14.73;;;2.90;99.90;;;;;;5072284;28;20317;-74
2020/12/31 11:48:35;;;;;;;33.17;15.70;;;3.00;99.90;;;;;;5073353;28;20262;-73
2020/12/31 11:51:03;;;;;;;31.30;15.13;;;3.00;99.90;;;;;;5072021;28;20704;-73
2020/12/31 11:53:30;;;;;;;34.43;15.80;;;3.00;99.90;;;;;;5067268;28;20205;-73
2020/12/31 11:56:01;;;;;;;37.03;15.80;;;3.00;99.90;;;;;;5072598;28;20697;-73
2020/12/31 11:58:27;;;;;;;37.33;15.67;;;3.00;99.90;;;;;;5072268;28;20201;-73
2020/12/31 12:00:54;;;;;;;32.57;15.33;;;2.90;99.90;;;;;;5074948;28;20296;-73
2020/12/31 12:03:20;;;;;;;37.17;16.57;;;2.90;99.90;;;;;;5073011;28;20261;-73
2020/12/31 12:05:48;;;;;;;35.20;16.13;;;2.90;99.90;;;;;;5075387;28;20243;-72
2020/12/31 12:08:15;;;;;;;37.10;16.63;;;2.80;99.90;;;;;;5074445;28;20213;-71
2020/12/31 12:10:42;;;;;;;35.73;16.70;;;2.80;99.90;;;;;;5072746;28;20328;-71
2020/12/31 12:13:08;;;;;;;34.33;15.33;;;2.80;99.90;;;;;;5071705;28;20229;-76
2020/12/31 12:15:34;;;;;;;32.77;16.47;;;2.80;99.90;;;;;;5072808;28;20288;-71
2020/12/31 12:18:01;;;;;;;29.40;15.17;;;2.80;99.90;;;;;;5069140;28;20284;-71
2020/12/31 12:20:27;;;;;;;39.40;17.53;;;2.80;99.90;;;;;;5066633;28;20267;-70
2020/12/31 12:22:54;;;;;;;34.40;15.83;;;2.80;99.90;;;;;;5072222;28;20548;-73
2020/12/31 12:25:21;;;;;;;30.67;15.43;;;2.80;99.90;;;;;;5072088;28;20308;-72
2020/12/31 12:27:48;;;;;;;35.50;15.60;;;2.80;99.90;;;;;;5071498;28;20240;-73
2020/12/31 12:30:15;;;;;;;31.57;15.20;;;2.80;99.90;;;;;;5071902;28;20300;-73
2020/12/31 12:32:41;;;;;;;31.30;15.27;;;2.70;99.90;;;;;;5068628;28;20210;-73
2020/12/31 12:35:10;;;;;;;33.53;16.80;;;2.80;99.90;;;;;;5071969;28;20209;-72
2020/12/31 12:37:36;;;;;;;32.20;16.43;;;2.70;99.90;;;;;;5071393;28;20284;-72
2020/12/31 12:40:06;;;;;;;38.90;17.50;;;2.70;99.90;;;;;;5071758;28;20292;-72